Los Angeles, California
Traffic Map
Current Weather Conditions
Los Angeles, California
Clear
Clear
82°
Feels Like: 83°
Wind Chill: 82° Ceiling: Unl
Heat Index: 83° Visibility: 10mi
Dew Point: 63° Wind: 6mph
Humidity: 52% Direction: ° ()
Pressure: 29.79in Gusts: 0mph
Raw Report DataKCQT 022147Z AUTO VRB05KT 10SM CLR 28/17 A2979 RMK AO2 SLP084 T02780172
Traffic Incident Summary
Active as of:
Severity:
Category:
InformationThere was an issue retrieving the traffic information for this location. Please try a different location or try again shortly.
Advertisements
Track Severe Weather on mobile